sensor_id;sensor_type;location;lat;lon;timestamp;P1;durP1;ratioP1;P2;durP2;ratioP2
9799;SDS011;4939;52.00085300;4.17406100;2023-05-07T00:00:32;48.55;;;21.75;;
9799;SDS011;4939;52.00085300;4.17406100;2023-05-07T00:02:59;47.20;;;21.13;;
9799;SDS011;4939;52.00085300;4.17406100;2023-05-07T00:05:25;45.60;;;20.35;;
9799;SDS011;4939;52.00085300;4.17406100;2023-05-07T00:07:51;49.70;;;21.25;;
9799;SDS011;4939;52.00085300;4.17406100;2023-05-07T00:10:17;48.90;;;20.67;;
9799;SDS011;4939;52.00085300;4.17406100;2023-05-07T00:12:43;50.78;;;21.55;;
9799;SDS011;4939;52.00085300;4.17406100;2023-05-07T00:15:09;46.50;;;20.92;;
9799;SDS011;4939;52.00085300;4.17406100;2023-05-07T00:17:35;44.13;;;20.13;;
9799;SDS011;4939;52.00085300;4.17406100;2023-05-07T00:20:07;46.97;;;20.23;;
9799;SDS011;4939;52.00085300;4.17406100;2023-05-07T00:22:33;44.50;;;19.50;;
9799;SDS011;4939;52.00085300;4.17406100;2023-05-07T00:24:59;43.92;;;19.35;;
9799;SDS011;4939;52.00085300;4.17406100;2023-05-07T00:27:25;50.85;;;20.02;;
9799;SDS011;4939;52.00085300;4.17406100;2023-05-07T00:29:51;47.95;;;19.42;;
9799;SDS011;4939;52.00085300;4.17406100;2023-05-07T00:32:16;46.67;;;19.75;;
9799;SDS011;4939;52.00085300;4.17406100;2023-05-07T00:34:43;48.38;;;20.30;;
9799;SDS011;4939;52.00085300;4.17406100;2023-05-07T00:37:09;42.65;;;20.20;;
9799;SDS011;4939;52.00085300;4.17406100;2023-05-07T00:39:35;47.17;;;19.70;;
9799;SDS011;4939;52.00085300;4.17406100;2023-05-07T00:42:02;44.72;;;20.10;;
9799;SDS011;4939;52.00085300;4.17406100;2023-05-07T00:44:28;48.55;;;20.98;;
9799;SDS011;4939;52.00085300;4.17406100;2023-05-07T00:46:55;45.03;;;19.85;;
9799;SDS011;4939;52.00085300;4.17406100;2023-05-07T00:49:22;49.20;;;21.38;;
9799;SDS011;4939;52.00085300;4.17406100;2023-05-07T00:51:59;50.60;;;20.75;;
9799;SDS011;4939;52.00085300;4.17406100;2023-05-07T00:54:25;47.53;;;20.90;;
9799;SDS011;4939;52.00085300;4.17406100;2023-05-07T00:56:51;48.33;;;20.90;;
9799;SDS011;4939;52.00085300;4.17406100;2023-05-07T00:59:17;48.80;;;21.35;;
9799;SDS011;4939;52.00085300;4.17406100;2023-05-07T01:01:43;47.08;;;19.92;;
9799;SDS011;4939;52.00085300;4.17406100;2023-05-07T01:04:09;45.20;;;20.48;;
9799;SDS011;4939;52.00085300;4.17406100;2023-05-07T01:06:35;44.22;;;19.52;;
9799;SDS011;4939;52.00085300;4.17406100;2023-05-07T01:09:00;46.92;;;20.35;;
9799;SDS011;4939;52.00085300;4.17406100;2023-05-07T01:11:27;45.95;;;20.70;;
9799;SDS011;4939;52.00085300;4.17406100;2023-05-07T01:13:53;48.22;;;20.40;;
9799;SDS011;4939;52.00085300;4.17406100;2023-05-07T01:16:19;47.00;;;20.85;;
9799;SDS011;4939;52.00085300;4.17406100;2023-05-07T01:18:45;49.05;;;20.73;;
9799;SDS011;4939;52.00085300;4.17406100;2023-05-07T01:21:13;51.88;;;21.73;;
9799;SDS011;4939;52.00085300;4.17406100;2023-05-07T01:23:42;49.65;;;21.55;;
9799;SDS011;4939;52.00085300;4.17406100;2023-05-07T01:26:09;50.40;;;20.92;;
9799;SDS011;4939;52.00085300;4.17406100;2023-05-07T01:28:35;52.17;;;22.25;;
9799;SDS011;4939;52.00085300;4.17406100;2023-05-07T01:31:02;49.15;;;22.52;;
9799;SDS011;4939;52.00085300;4.17406100;2023-05-07T01:33:29;51.17;;;20.67;;
9799;SDS011;4939;52.00085300;4.17406100;2023-05-07T01:35:59;54.83;;;22.13;;
9799;SDS011;4939;52.00085300;4.17406100;2023-05-07T01:38:29;51.03;;;23.00;;
9799;SDS011;4939;52.00085300;4.17406100;2023-05-07T01:40:55;48.85;;;21.90;;
9799;SDS011;4939;52.00085300;4.17406100;2023-05-07T01:43:22;51.53;;;21.63;;
9799;SDS011;4939;52.00085300;4.17406100;2023-05-07T01:45:48;52.90;;;21.67;;
9799;SDS011;4939;52.00085300;4.17406100;2023-05-07T01:48:15;46.63;;;21.48;;
9799;SDS011;4939;52.00085300;4.17406100;2023-05-07T01:50:44;52.78;;;22.38;;
9799;SDS011;4939;52.00085300;4.17406100;2023-05-07T01:53:10;47.60;;;20.25;;
9799;SDS011;4939;52.00085300;4.17406100;2023-05-07T01:55:35;50.88;;;21.50;;
9799;SDS011;4939;52.00085300;4.17406100;2023-05-07T01:58:02;51.55;;;20.92;;
9799;SDS011;4939;52.00085300;4.17406100;2023-05-07T02:00:28;48.40;;;21.00;;
9799;SDS011;4939;52.00085300;4.17406100;2023-05-07T02:02:54;50.20;;;20.92;;
9799;SDS011;4939;52.00085300;4.17406100;2023-05-07T02:05:20;48.80;;;20.85;;
9799;SDS011;4939;52.00085300;4.17406100;2023-05-07T02:07:46;48.97;;;21.27;;
9799;SDS011;4939;52.00085300;4.17406100;2023-05-07T02:10:11;52.35;;;21.55;;
9799;SDS011;4939;52.00085300;4.17406100;2023-05-07T02:12:37;47.20;;;20.42;;
9799;SDS011;4939;52.00085300;4.17406100;2023-05-07T02:15:09;53.27;;;21.37;;
9799;SDS011;4939;52.00085300;4.17406100;2023-05-07T02:17:38;46.78;;;21.48;;
9799;SDS011;4939;52.00085300;4.17406100;2023-05-07T02:20:36;43.63;;;19.73;;
9799;SDS011;4939;52.00085300;4.17406100;2023-05-07T02:23:02;48.63;;;19.90;;
9799;SDS011;4939;52.00085300;4.17406100;2023-05-07T02:25:28;44.47;;;20.02;;
9799;SDS011;4939;52.00085300;4.17406100;2023-05-07T02:27:54;43.85;;;19.85;;
9799;SDS011;4939;52.00085300;4.17406100;2023-05-07T02:30:20;40.90;;;18.80;;
9799;SDS011;4939;52.00085300;4.17406100;2023-05-07T02:32:50;45.70;;;19.55;;
9799;SDS011;4939;52.00085300;4.17406100;2023-05-07T02:35:15;41.35;;;19.02;;
9799;SDS011;4939;52.00085300;4.17406100;2023-05-07T02:37:41;42.20;;;18.85;;
9799;SDS011;4939;52.00085300;4.17406100;2023-05-07T02:40:07;41.08;;;19.08;;
9799;SDS011;4939;52.00085300;4.17406100;2023-05-07T02:42:34;38.88;;;18.35;;
9799;SDS011;4939;52.00085300;4.17406100;2023-05-07T02:45:00;43.17;;;18.95;;
9799;SDS011;4939;52.00085300;4.17406100;2023-05-07T02:47:26;42.90;;;19.35;;
9799;SDS011;4939;52.00085300;4.17406100;2023-05-07T02:49:53;40.17;;;18.42;;
9799;SDS011;4939;52.00085300;4.17406100;2023-05-07T02:52:20;39.67;;;18.77;;
9799;SDS011;4939;52.00085300;4.17406100;2023-05-07T02:54:46;39.38;;;18.52;;
9799;SDS011;4939;52.00085300;4.17406100;2023-05-07T02:57:11;39.63;;;18.63;;
9799;SDS011;4939;52.00085300;4.17406100;2023-05-07T02:59:37;38.08;;;19.08;;
9799;SDS011;4939;52.00085300;4.17406100;2023-05-07T03:02:03;40.50;;;18.30;;
9799;SDS011;4939;52.00085300;4.17406100;2023-05-07T03:04:28;38.75;;;18.00;;
9799;SDS011;4939;52.00085300;4.17406100;2023-05-07T03:06:54;39.72;;;17.98;;
9799;SDS011;4939;52.00085300;4.17406100;2023-05-07T03:09:20;37.17;;;18.17;;
9799;SDS011;4939;52.00085300;4.17406100;2023-05-07T03:11:46;41.90;;;18.10;;
9799;SDS011;4939;52.00085300;4.17406100;2023-05-07T03:14:11;39.45;;;18.17;;
9799;SDS011;4939;52.00085300;4.17406100;2023-05-07T03:16:37;37.20;;;16.92;;
9799;SDS011;4939;52.00085300;4.17406100;2023-05-07T03:19:04;34.92;;;17.60;;
9799;SDS011;4939;52.00085300;4.17406100;2023-05-07T03:21:29;35.25;;;17.42;;
9799;SDS011;4939;52.00085300;4.17406100;2023-05-07T03:23:55;35.05;;;16.85;;
9799;SDS011;4939;52.00085300;4.17406100;2023-05-07T03:26:21;35.15;;;17.35;;
9799;SDS011;4939;52.00085300;4.17406100;2023-05-07T03:28:47;35.95;;;17.63;;
9799;SDS011;4939;52.00085300;4.17406100;2023-05-07T03:31:13;35.33;;;17.83;;
9799;SDS011;4939;52.00085300;4.17406100;2023-05-07T03:33:49;40.25;;;18.23;;
9799;SDS011;4939;52.00085300;4.17406100;2023-05-07T03:36:22;35.45;;;17.90;;
9799;SDS011;4939;52.00085300;4.17406100;2023-05-07T03:38:48;38.60;;;17.75;;
9799;SDS011;4939;52.00085300;4.17406100;2023-05-07T03:41:15;37.00;;;18.17;;
9799;SDS011;4939;52.00085300;4.17406100;2023-05-07T03:43:41;38.55;;;18.33;;
9799;SDS011;4939;52.00085300;4.17406100;2023-05-07T03:46:06;38.17;;;18.40;;
9799;SDS011;4939;52.00085300;4.17406100;2023-05-07T03:48:32;33.53;;;18.20;;
9799;SDS011;4939;52.00085300;4.17406100;2023-05-07T03:50:58;40.53;;;19.65;;
9799;SDS011;4939;52.00085300;4.17406100;2023-05-07T03:53:24;36.40;;;17.85;;
9799;SDS011;4939;52.00085300;4.17406100;2023-05-07T03:55:50;38.15;;;19.05;;
9799;SDS011;4939;52.00085300;4.17406100;2023-05-07T03:58:16;39.20;;;17.98;;
9799;SDS011;4939;52.00085300;4.17406100;2023-05-07T04:00:42;42.22;;;19.30;;
9799;SDS011;4939;52.00085300;4.17406100;2023-05-07T04:03:07;43.03;;;19.75;;
9799;SDS011;4939;52.00085300;4.17406100;2023-05-07T04:05:33;42.08;;;19.23;;
9799;SDS011;4939;52.00085300;4.17406100;2023-05-07T04:07:59;41.45;;;19.70;;
9799;SDS011;4939;52.00085300;4.17406100;2023-05-07T04:10:25;37.95;;;19.15;;
9799;SDS011;4939;52.00085300;4.17406100;2023-05-07T04:12:53;42.28;;;19.60;;
9799;SDS011;4939;52.00085300;4.17406100;2023-05-07T04:15:19;40.45;;;20.10;;
9799;SDS011;4939;52.00085300;4.17406100;2023-05-07T04:17:45;43.08;;;19.83;;
9799;SDS011;4939;52.00085300;4.17406100;2023-05-07T04:20:15;40.10;;;19.10;;
9799;SDS011;4939;52.00085300;4.17406100;2023-05-07T04:22:42;37.00;;;18.35;;
9799;SDS011;4939;52.00085300;4.17406100;2023-05-07T04:25:08;41.05;;;19.83;;
9799;SDS011;4939;52.00085300;4.17406100;2023-05-07T04:27:35;37.55;;;18.92;;
9799;SDS011;4939;52.00085300;4.17406100;2023-05-07T04:30:01;41.10;;;19.40;;
9799;SDS011;4939;52.00085300;4.17406100;2023-05-07T04:32:27;36.10;;;18.33;;
9799;SDS011;4939;52.00085300;4.17406100;2023-05-07T04:34:54;39.03;;;18.05;;
9799;SDS011;4939;52.00085300;4.17406100;2023-05-07T04:37:21;38.75;;;18.33;;
9799;SDS011;4939;52.00085300;4.17406100;2023-05-07T04:39:47;40.65;;;18.77;;
9799;SDS011;4939;52.00085300;4.17406100;2023-05-07T04:42:16;37.47;;;18.05;;
9799;SDS011;4939;52.00085300;4.17406100;2023-05-07T04:44:43;35.67;;;18.13;;
9799;SDS011;4939;52.00085300;4.17406100;2023-05-07T04:47:09;38.50;;;18.70;;
9799;SDS011;4939;52.00085300;4.17406100;2023-05-07T04:49:36;39.70;;;18.15;;
9799;SDS011;4939;52.00085300;4.17406100;2023-05-07T04:52:02;36.95;;;19.13;;
9799;SDS011;4939;52.00085300;4.17406100;2023-05-07T04:54:28;34.58;;;18.05;;
9799;SDS011;4939;52.00085300;4.17406100;2023-05-07T04:56:54;35.60;;;18.77;;
9799;SDS011;4939;52.00085300;4.17406100;2023-05-07T04:59:20;37.65;;;18.73;;
9799;SDS011;4939;52.00085300;4.17406100;2023-05-07T05:01:46;31.95;;;16.90;;
9799;SDS011;4939;52.00085300;4.17406100;2023-05-07T05:04:12;34.35;;;18.08;;
9799;SDS011;4939;52.00085300;4.17406100;2023-05-07T05:06:38;35.08;;;18.48;;
9799;SDS011;4939;52.00085300;4.17406100;2023-05-07T05:09:04;35.63;;;17.50;;
9799;SDS011;4939;52.00085300;4.17406100;2023-05-07T05:11:31;34.95;;;18.73;;
9799;SDS011;4939;52.00085300;4.17406100;2023-05-07T05:13:57;37.22;;;18.80;;
9799;SDS011;4939;52.00085300;4.17406100;2023-05-07T05:16:24;33.88;;;18.77;;
9799;SDS011;4939;52.00085300;4.17406100;2023-05-07T05:18:49;35.95;;;18.58;;
9799;SDS011;4939;52.00085300;4.17406100;2023-05-07T05:21:17;33.05;;;18.05;;
9799;SDS011;4939;52.00085300;4.17406100;2023-05-07T05:23:43;34.85;;;18.13;;
9799;SDS011;4939;52.00085300;4.17406100;2023-05-07T05:26:09;32.05;;;17.75;;
9799;SDS011;4939;52.00085300;4.17406100;2023-05-07T05:28:35;33.75;;;17.83;;
9799;SDS011;4939;52.00085300;4.17406100;2023-05-07T05:31:00;35.28;;;18.08;;
9799;SDS011;4939;52.00085300;4.17406100;2023-05-07T05:33:26;33.15;;;17.75;;
9799;SDS011;4939;52.00085300;4.17406100;2023-05-07T05:35:53;33.88;;;17.67;;
9799;SDS011;4939;52.00085300;4.17406100;2023-05-07T05:38:19;32.10;;;17.35;;
9799;SDS011;4939;52.00085300;4.17406100;2023-05-07T05:40:46;30.45;;;17.73;;
9799;SDS011;4939;52.00085300;4.17406100;2023-05-07T05:43:12;32.75;;;17.00;;
9799;SDS011;4939;52.00085300;4.17406100;2023-05-07T05:45:38;31.60;;;17.15;;
9799;SDS011;4939;52.00085300;4.17406100;2023-05-07T05:48:04;30.65;;;16.73;;
9799;SDS011;4939;52.00085300;4.17406100;2023-05-07T05:50:29;30.10;;;16.90;;
9799;SDS011;4939;52.00085300;4.17406100;2023-05-07T05:52:55;29.80;;;16.85;;
9799;SDS011;4939;52.00085300;4.17406100;2023-05-07T05:55:21;31.50;;;16.98;;
9799;SDS011;4939;52.00085300;4.17406100;2023-05-07T05:57:47;29.08;;;16.27;;
9799;SDS011;4939;52.00085300;4.17406100;2023-05-07T06:00:13;26.73;;;15.88;;
9799;SDS011;4939;52.00085300;4.17406100;2023-05-07T06:02:39;26.58;;;15.88;;
9799;SDS011;4939;52.00085300;4.17406100;2023-05-07T06:05:05;26.48;;;15.77;;
9799;SDS011;4939;52.00085300;4.17406100;2023-05-07T06:07:31;27.33;;;15.88;;
9799;SDS011;4939;52.00085300;4.17406100;2023-05-07T06:09:57;28.55;;;15.02;;
9799;SDS011;4939;52.00085300;4.17406100;2023-05-07T06:12:23;26.23;;;15.10;;
9799;SDS011;4939;52.00085300;4.17406100;2023-05-07T06:14:49;26.90;;;15.15;;
9799;SDS011;4939;52.00085300;4.17406100;2023-05-07T06:17:14;25.58;;;15.30;;
9799;SDS011;4939;52.00085300;4.17406100;2023-05-07T06:19:40;23.83;;;14.18;;
9799;SDS011;4939;52.00085300;4.17406100;2023-05-07T06:22:06;22.92;;;15.15;;
9799;SDS011;4939;52.00085300;4.17406100;2023-05-07T06:24:32;23.92;;;14.85;;
9799;SDS011;4939;52.00085300;4.17406100;2023-05-07T06:26:57;25.38;;;14.27;;
9799;SDS011;4939;52.00085300;4.17406100;2023-05-07T06:29:23;22.52;;;13.75;;
9799;SDS011;4939;52.00085300;4.17406100;2023-05-07T06:31:51;20.92;;;13.27;;
9799;SDS011;4939;52.00085300;4.17406100;2023-05-07T06:34:17;22.50;;;13.32;;
9799;SDS011;4939;52.00085300;4.17406100;2023-05-07T06:36:43;22.08;;;13.95;;
9799;SDS011;4939;52.00085300;4.17406100;2023-05-07T06:39:09;20.73;;;13.13;;
9799;SDS011;4939;52.00085300;4.17406100;2023-05-07T06:41:34;19.60;;;13.10;;
9799;SDS011;4939;52.00085300;4.17406100;2023-05-07T06:44:04;21.38;;;13.40;;
9799;SDS011;4939;52.00085300;4.17406100;2023-05-07T06:46:30;19.80;;;12.63;;
9799;SDS011;4939;52.00085300;4.17406100;2023-05-07T06:48:56;20.88;;;13.32;;
9799;SDS011;4939;52.00085300;4.17406100;2023-05-07T06:51:22;20.42;;;12.60;;
9799;SDS011;4939;52.00085300;4.17406100;2023-05-07T06:53:48;21.73;;;12.55;;
9799;SDS011;4939;52.00085300;4.17406100;2023-05-07T06:56:13;21.40;;;12.68;;
9799;SDS011;4939;52.00085300;4.17406100;2023-05-07T06:58:39;19.40;;;12.60;;
9799;SDS011;4939;52.00085300;4.17406100;2023-05-07T07:01:05;17.70;;;11.77;;
9799;SDS011;4939;52.00085300;4.17406100;2023-05-07T07:03:30;19.23;;;12.23;;
9799;SDS011;4939;52.00085300;4.17406100;2023-05-07T07:05:56;19.98;;;12.48;;
9799;SDS011;4939;52.00085300;4.17406100;2023-05-07T07:08:22;18.73;;;12.07;;
9799;SDS011;4939;52.00085300;4.17406100;2023-05-07T07:10:48;18.42;;;12.52;;
9799;SDS011;4939;52.00085300;4.17406100;2023-05-07T07:13:14;18.88;;;12.18;;
9799;SDS011;4939;52.00085300;4.17406100;2023-05-07T07:15:39;19.83;;;12.70;;
9799;SDS011;4939;52.00085300;4.17406100;2023-05-07T07:18:05;18.23;;;12.32;;
9799;SDS011;4939;52.00085300;4.17406100;2023-05-07T07:20:31;17.67;;;11.88;;
9799;SDS011;4939;52.00085300;4.17406100;2023-05-07T07:22:57;18.63;;;11.82;;
9799;SDS011;4939;52.00085300;4.17406100;2023-05-07T07:25:22;19.13;;;11.60;;
9799;SDS011;4939;52.00085300;4.17406100;2023-05-07T07:27:48;19.02;;;12.07;;
9799;SDS011;4939;52.00085300;4.17406100;2023-05-07T07:30:14;17.30;;;11.50;;
9799;SDS011;4939;52.00085300;4.17406100;2023-05-07T07:32:40;17.63;;;11.13;;
9799;SDS011;4939;52.00085300;4.17406100;2023-05-07T07:35:06;17.83;;;10.50;;
9799;SDS011;4939;52.00085300;4.17406100;2023-05-07T07:37:32;18.33;;;11.05;;
9799;SDS011;4939;52.00085300;4.17406100;2023-05-07T07:39:58;17.40;;;10.90;;
9799;SDS011;4939;52.00085300;4.17406100;2023-05-07T07:42:23;19.42;;;10.73;;
9799;SDS011;4939;52.00085300;4.17406100;2023-05-07T07:44:49;16.40;;;10.25;;
9799;SDS011;4939;52.00085300;4.17406100;2023-05-07T07:47:15;14.40;;;10.20;;
9799;SDS011;4939;52.00085300;4.17406100;2023-05-07T07:49:41;18.05;;;10.80;;
9799;SDS011;4939;52.00085300;4.17406100;2023-05-07T07:52:07;18.17;;;10.65;;
9799;SDS011;4939;52.00085300;4.17406100;2023-05-07T07:54:35;17.40;;;11.20;;
9799;SDS011;4939;52.00085300;4.17406100;2023-05-07T07:57:01;17.02;;;11.20;;
9799;SDS011;4939;52.00085300;4.17406100;2023-05-07T07:59:27;17.58;;;10.32;;
9799;SDS011;4939;52.00085300;4.17406100;2023-05-07T08:01:53;20.02;;;10.20;;
9799;SDS011;4939;52.00085300;4.17406100;2023-05-07T08:04:21;15.60;;;10.38;;
9799;SDS011;4939;52.00085300;4.17406100;2023-05-07T08:06:47;17.35;;;10.18;;
9799;SDS011;4939;52.00085300;4.17406100;2023-05-07T08:09:13;18.02;;;10.85;;
9799;SDS011;4939;52.00085300;4.17406100;2023-05-07T08:11:39;17.48;;;9.98;;
9799;SDS011;4939;52.00085300;4.17406100;2023-05-07T08:14:05;19.23;;;9.60;;
9799;SDS011;4939;52.00085300;4.17406100;2023-05-07T08:16:30;17.63;;;9.50;;
9799;SDS011;4939;52.00085300;4.17406100;2023-05-07T08:18:56;16.67;;;9.07;;
9799;SDS011;4939;52.00085300;4.17406100;2023-05-07T08:21:22;13.68;;;8.90;;
9799;SDS011;4939;52.00085300;4.17406100;2023-05-07T08:23:48;18.00;;;9.70;;
9799;SDS011;4939;52.00085300;4.17406100;2023-05-07T08:26:14;15.30;;;9.68;;
9799;SDS011;4939;52.00085300;4.17406100;2023-05-07T08:28:40;17.10;;;8.48;;
9799;SDS011;4939;52.00085300;4.17406100;2023-05-07T08:31:05;15.20;;;8.35;;
9799;SDS011;4939;52.00085300;4.17406100;2023-05-07T08:33:31;13.63;;;7.90;;
9799;SDS011;4939;52.00085300;4.17406100;2023-05-07T08:35:57;15.95;;;7.78;;
9799;SDS011;4939;52.00085300;4.17406100;2023-05-07T08:38:23;17.75;;;7.80;;
9799;SDS011;4939;52.00085300;4.17406100;2023-05-07T08:40:52;13.48;;;7.15;;
9799;SDS011;4939;52.00085300;4.17406100;2023-05-07T08:43:17;14.50;;;7.30;;
9799;SDS011;4939;52.00085300;4.17406100;2023-05-07T08:45:45;16.88;;;7.72;;
9799;SDS011;4939;52.00085300;4.17406100;2023-05-07T08:48:14;11.98;;;7.32;;
9799;SDS011;4939;52.00085300;4.17406100;2023-05-07T08:50:41;15.35;;;6.78;;
9799;SDS011;4939;52.00085300;4.17406100;2023-05-07T08:53:07;14.35;;;7.03;;
9799;SDS011;4939;52.00085300;4.17406100;2023-05-07T08:55:33;15.68;;;6.85;;
9799;SDS011;4939;52.00085300;4.17406100;2023-05-07T08:58:00;16.23;;;6.07;;
9799;SDS011;4939;52.00085300;4.17406100;2023-05-07T09:00:26;12.43;;;5.05;;
9799;SDS011;4939;52.00085300;4.17406100;2023-05-07T09:02:52;9.85;;;4.45;;
9799;SDS011;4939;52.00085300;4.17406100;2023-05-07T09:05:19;13.25;;;4.88;;
9799;SDS011;4939;52.00085300;4.17406100;2023-05-07T09:07:45;10.90;;;5.28;;
9799;SDS011;4939;52.00085300;4.17406100;2023-05-07T09:10:11;9.60;;;4.50;;
9799;SDS011;4939;52.00085300;4.17406100;2023-05-07T09:12:37;11.25;;;4.75;;
9799;SDS011;4939;52.00085300;4.17406100;2023-05-07T09:15:04;11.07;;;5.40;;
9799;SDS011;4939;52.00085300;4.17406100;2023-05-07T09:17:31;11.40;;;6.50;;
9799;SDS011;4939;52.00085300;4.17406100;2023-05-07T09:20:01;14.07;;;5.70;;
9799;SDS011;4939;52.00085300;4.17406100;2023-05-07T09:22:31;14.13;;;6.40;;
9799;SDS011;4939;52.00085300;4.17406100;2023-05-07T09:25:06;12.13;;;6.43;;
9799;SDS011;4939;52.00085300;4.17406100;2023-05-07T09:27:33;10.73;;;5.60;;
9799;SDS011;4939;52.00085300;4.17406100;2023-05-07T09:29:58;14.45;;;6.07;;
9799;SDS011;4939;52.00085300;4.17406100;2023-05-07T09:32:24;16.23;;;5.80;;
9799;SDS011;4939;52.00085300;4.17406100;2023-05-07T09:34:52;11.60;;;5.82;;
9799;SDS011;4939;52.00085300;4.17406100;2023-05-07T09:37:18;11.73;;;5.80;;
9799;SDS011;4939;52.00085300;4.17406100;2023-05-07T09:39:45;11.82;;;5.90;;
9799;SDS011;4939;52.00085300;4.17406100;2023-05-07T09:42:12;15.07;;;7.57;;
9799;SDS011;4939;52.00085300;4.17406100;2023-05-07T09:44:40;14.10;;;7.55;;
9799;SDS011;4939;52.00085300;4.17406100;2023-05-07T09:47:06;13.35;;;6.90;;
9799;SDS011;4939;52.00085300;4.17406100;2023-05-07T09:49:36;13.00;;;8.00;;
9799;SDS011;4939;52.00085300;4.17406100;2023-05-07T09:52:05;18.97;;;7.90;;
9799;SDS011;4939;52.00085300;4.17406100;2023-05-07T09:54:34;12.45;;;8.00;;
9799;SDS011;4939;52.00085300;4.17406100;2023-05-07T09:57:03;14.65;;;7.15;;
9799;SDS011;4939;52.00085300;4.17406100;2023-05-07T09:59:31;10.93;;;5.97;;
9799;SDS011;4939;52.00085300;4.17406100;2023-05-07T10:01:58;14.35;;;6.35;;
9799;SDS011;4939;52.00085300;4.17406100;2023-05-07T10:04:25;9.90;;;5.60;;
9799;SDS011;4939;52.00085300;4.17406100;2023-05-07T10:06:51;11.30;;;5.68;;
9799;SDS011;4939;52.00085300;4.17406100;2023-05-07T10:09:18;12.77;;;5.95;;
9799;SDS011;4939;52.00085300;4.17406100;2023-05-07T10:11:45;12.38;;;6.50;;
9799;SDS011;4939;52.00085300;4.17406100;2023-05-07T10:14:11;11.13;;;5.47;;
9799;SDS011;4939;52.00085300;4.17406100;2023-05-07T10:16:39;14.13;;;6.10;;
9799;SDS011;4939;52.00085300;4.17406100;2023-05-07T10:19:06;11.85;;;5.28;;
9799;SDS011;4939;52.00085300;4.17406100;2023-05-07T10:21:38;10.70;;;6.82;;
9799;SDS011;4939;52.00085300;4.17406100;2023-05-07T10:24:19;12.88;;;7.35;;
9799;SDS011;4939;52.00085300;4.17406100;2023-05-07T10:26:48;15.98;;;7.10;;
9799;SDS011;4939;52.00085300;4.17406100;2023-05-07T10:29:18;15.63;;;7.93;;
9799;SDS011;4939;52.00085300;4.17406100;2023-05-07T10:31:55;13.43;;;7.32;;
9799;SDS011;4939;52.00085300;4.17406100;2023-05-07T10:34:42;14.38;;;8.65;;
9799;SDS011;4939;52.00085300;4.17406100;2023-05-07T10:37:13;12.25;;;7.80;;
9799;SDS011;4939;52.00085300;4.17406100;2023-05-07T10:39:39;11.70;;;7.85;;
9799;SDS011;4939;52.00085300;4.17406100;2023-05-07T10:42:12;14.55;;;7.32;;
9799;SDS011;4939;52.00085300;4.17406100;2023-05-07T10:44:39;14.85;;;8.43;;
9799;SDS011;4939;52.00085300;4.17406100;2023-05-07T10:47:09;15.45;;;7.28;;
9799;SDS011;4939;52.00085300;4.17406100;2023-05-07T10:52:21;12.75;;;7.35;;
9799;SDS011;4939;52.00085300;4.17406100;2023-05-07T10:55:18;15.95;;;9.07;;
9799;SDS011;4939;52.00085300;4.17406100;2023-05-07T10:57:42;19.48;;;10.88;;
9799;SDS011;4939;52.00085300;4.17406100;2023-05-07T11:05:24;19.08;;;12.07;;
9799;SDS011;4939;52.00085300;4.17406100;2023-05-07T11:08:00;21.83;;;12.10;;
9799;SDS011;4939;52.00085300;4.17406100;2023-05-07T11:13:14;22.30;;;13.40;;
9799;SDS011;4939;52.00085300;4.17406100;2023-05-07T11:15:42;22.27;;;13.98;;
9799;SDS011;4939;52.00085300;4.17406100;2023-05-07T11:18:10;27.45;;;15.43;;
9799;SDS011;4939;52.00085300;4.17406100;2023-05-07T11:20:56;27.27;;;15.73;;
9799;SDS011;4939;52.00085300;4.17406100;2023-05-07T11:26:08;26.52;;;16.02;;
9799;SDS011;4939;52.00085300;4.17406100;2023-05-07T11:28:39;26.40;;;16.35;;
9799;SDS011;4939;52.00085300;4.17406100;2023-05-07T11:31:05;28.10;;;16.25;;
9799;SDS011;4939;52.00085300;4.17406100;2023-05-07T11:33:32;30.38;;;17.27;;
9799;SDS011;4939;52.00085300;4.17406100;2023-05-07T11:36:04;30.05;;;16.85;;
9799;SDS011;4939;52.00085300;4.17406100;2023-05-07T11:38:36;29.52;;;17.23;;
9799;SDS011;4939;52.00085300;4.17406100;2023-05-07T11:41:02;27.98;;;17.40;;
9799;SDS011;4939;52.00085300;4.17406100;2023-05-07T11:43:30;31.02;;;17.33;;
9799;SDS011;4939;52.00085300;4.17406100;2023-05-07T11:46:10;31.60;;;17.80;;
9799;SDS011;4939;52.00085300;4.17406100;2023-05-07T11:48:37;27.85;;;16.85;;
9799;SDS011;4939;52.00085300;4.17406100;2023-05-07T11:51:04;31.15;;;16.90;;
9799;SDS011;4939;52.00085300;4.17406100;2023-05-07T11:53:40;28.60;;;17.55;;
9799;SDS011;4939;52.00085300;4.17406100;2023-05-07T11:56:07;29.17;;;17.40;;
9799;SDS011;4939;52.00085300;4.17406100;2023-05-07T11:58:40;29.13;;;17.63;;
9799;SDS011;4939;52.00085300;4.17406100;2023-05-07T12:01:07;28.20;;;17.48;;
9799;SDS011;4939;52.00085300;4.17406100;2023-05-07T12:03:35;29.10;;;17.35;;
9799;SDS011;4939;52.00085300;4.17406100;2023-05-07T12:06:02;28.50;;;17.98;;
9799;SDS011;4939;52.00085300;4.17406100;2023-05-07T12:08:31;31.23;;;18.17;;
9799;SDS011;4939;52.00085300;4.17406100;2023-05-07T12:10:57;28.92;;;18.30;;
9799;SDS011;4939;52.00085300;4.17406100;2023-05-07T12:13:24;37.63;;;19.77;;
9799;SDS011;4939;52.00085300;4.17406100;2023-05-07T12:15:54;35.53;;;20.80;;
9799;SDS011;4939;52.00085300;4.17406100;2023-05-07T12:18:21;36.65;;;22.25;;
9799;SDS011;4939;52.00085300;4.17406100;2023-05-07T12:20:48;38.05;;;21.98;;
9799;SDS011;4939;52.00085300;4.17406100;2023-05-07T12:23:14;39.70;;;22.52;;
9799;SDS011;4939;52.00085300;4.17406100;2023-05-07T12:25:41;40.25;;;22.65;;
9799;SDS011;4939;52.00085300;4.17406100;2023-05-07T12:28:14;37.80;;;20.75;;
9799;SDS011;4939;52.00085300;4.17406100;2023-05-07T12:30:44;37.88;;;21.77;;
9799;SDS011;4939;52.00085300;4.17406100;2023-05-07T12:33:20;38.13;;;20.98;;
9799;SDS011;4939;52.00085300;4.17406100;2023-05-07T12:35:50;36.08;;;20.42;;
9799;SDS011;4939;52.00085300;4.17406100;2023-05-07T12:38:17;35.17;;;20.80;;
9799;SDS011;4939;52.00085300;4.17406100;2023-05-07T12:40:44;35.92;;;20.10;;
9799;SDS011;4939;52.00085300;4.17406100;2023-05-07T12:43:19;34.05;;;19.80;;
9799;SDS011;4939;52.00085300;4.17406100;2023-05-07T12:45:47;31.98;;;20.55;;
9799;SDS011;4939;52.00085300;4.17406100;2023-05-07T12:48:14;31.95;;;19.05;;
9799;SDS011;4939;52.00085300;4.17406100;2023-05-07T12:50:40;30.60;;;18.77;;
9799;SDS011;4939;52.00085300;4.17406100;2023-05-07T12:53:06;25.70;;;15.50;;
9799;SDS011;4939;52.00085300;4.17406100;2023-05-07T12:55:43;25.25;;;14.52;;
9799;SDS011;4939;52.00085300;4.17406100;2023-05-07T13:00:55;28.23;;;16.17;;
9799;SDS011;4939;52.00085300;4.17406100;2023-05-07T13:03:29;27.45;;;16.40;;
9799;SDS011;4939;52.00085300;4.17406100;2023-05-07T13:06:03;30.67;;;16.55;;
9799;SDS011;4939;52.00085300;4.17406100;2023-05-07T13:08:35;29.20;;;16.75;;